Time;durP1;ratioP1;P1;durP2;ratioP2;P2;SDS_P1;SDS_P2;PMS_P1;PMS_P2;Temp;Humidity;BMP_temperature;BMP_pressure;BME280_temperature;BME280_humidity;BME280_pressure;Samples;Min_cycle;Max_cycle;Signal;HPM_P1;HPM_P2
2024/01/03 00:01:30;;;;;;;6.85;1.67;;;7.90;99.90;;;;;;5034284;28;20041;-70
2024/01/03 00:03:56;;;;;;;8.05;2.00;;;7.90;99.90;;;;;;5023623;28;20037;-71
2024/01/03 00:06:21;;;;;;;7.50;1.27;;;7.90;99.90;;;;;;5019648;28;20045;-69
2024/01/03 00:08:47;;;;;;;7.82;1.30;;;7.30;99.90;;;;;;5042038;28;20130;-72
2024/01/03 00:11:20;;;;;;;4.43;1.25;;;7.80;99.90;;;;;;5039183;28;20485;-70
2024/01/03 00:14:20;;;;;;;7.22;1.23;;;7.30;99.90;;;;;;5032309;28;20055;-69
2024/01/03 00:16:46;;;;;;;7.38;1.45;;;7.30;99.90;;;;;;5015796;28;20038;-69
2024/01/03 00:19:18;;;;;;;6.22;0.90;;;7.30;99.90;;;;;;5044353;28;20385;-70
2024/01/03 00:21:44;;;;;;;9.05;1.38;;;7.50;99.90;;;;;;5032183;28;20053;-68
2024/01/03 00:24:13;;;;;;;9.13;1.60;;;7.80;99.90;;;;;;5035193;28;20370;-69
2024/01/03 00:26:40;;;;;;;5.47;1.65;;;7.60;99.90;;;;;;5037661;28;20045;-70
2024/01/03 00:29:24;;;;;;;6.65;1.05;;;7.30;99.90;;;;;;5031162;28;20063;-74
2024/01/03 00:31:50;;;;;;;7.30;2.92;;;7.50;99.90;;;;;;5032540;28;20053;-68
2024/01/03 00:34:21;;;;;;;4.53;1.25;;;7.80;99.90;;;;;;5032056;28;20592;-69
2024/01/03 00:36:48;;;;;;;6.30;1.27;;;7.80;99.90;;;;;;5041002;28;20516;-67
2024/01/03 00:39:14;;;;;;;9.75;1.63;;;7.20;99.90;;;;;;5034280;28;20044;-69
2024/01/03 00:41:39;;;;;;;6.20;0.88;;;7.70;99.90;;;;;;5016568;28;20049;-72
2024/01/03 00:44:05;;;;;;;4.63;1.20;;;7.20;99.90;;;;;;5032755;28;20183;-71
2024/01/03 00:46:31;;;;;;;6.22;1.40;;;7.20;99.90;;;;;;5032967;28;20465;-70
2024/01/03 00:48:56;;;;;;;3.80;1.05;;;7.20;99.90;;;;;;5031921;28;20705;-70
2024/01/03 00:51:22;;;;;;;8.63;1.50;;;7.60;99.90;;;;;;5031955;28;20041;-71
2024/01/03 00:53:48;;;;;;;6.68;1.27;;;7.60;99.90;;;;;;5032878;28;20184;-71
2024/01/03 00:56:14;;;;;;;3.95;1.40;;;7.10;99.90;;;;;;5031920;28;20084;-68
2024/01/03 00:58:40;;;;;;;8.10;1.33;;;7.40;99.90;;;;;;5049682;28;20049;-70
2024/01/03 01:01:06;;;;;;;9.15;1.70;;;7.70;99.90;;;;;;5050214;28;20036;-69
2024/01/03 01:03:32;;;;;;;6.80;1.40;;;7.70;99.90;;;;;;5027719;28;20091;-70
2024/01/03 01:05:58;;;;;;;7.07;1.52;;;7.10;99.90;;;;;;5038753;28;20041;-71
2024/01/03 01:08:24;;;;;;;7.47;1.40;;;7.70;99.90;;;;;;5015555;28;20036;-71
2024/01/03 01:10:49;;;;;;;11.93;2.33;;;7.10;99.90;;;;;;5032844;28;20550;-69
2024/01/03 01:13:15;;;;;;;5.43;1.20;;;7.00;99.90;;;;;;5032644;28;20033;-68
2024/01/03 01:15:40;;;;;;;11.63;1.55;;;7.10;99.90;;;;;;5016065;28;20033;-70
2024/01/03 01:18:06;;;;;;;8.52;1.40;;;7.60;99.90;;;;;;5036090;28;20045;-72
2024/01/03 01:20:31;;;;;;;11.27;1.70;;;7.50;99.90;;;;;;5021623;28;20132;-73
2024/01/03 01:22:57;;;;;;;6.90;1.33;;;7.30;99.90;;;;;;5032309;28;20064;-68
2024/01/03 01:25:23;;;;;;;8.90;2.47;;;7.50;99.90;;;;;;5034226;28;20116;-72
2024/01/03 01:27:48;;;;;;;8.25;1.45;;;7.50;99.90;;;;;;5036418;28;20037;-71
2024/01/03 01:30:14;;;;;;;6.70;1.70;;;6.90;99.90;;;;;;5031687;28;20081;-71
2024/01/03 01:32:39;;;;;;;8.65;1.40;;;6.90;99.90;;;;;;5036988;28;20044;-68
2024/01/03 01:35:05;;;;;;;9.60;1.33;;;7.10;99.90;;;;;;5041976;28;20124;-70
2024/01/03 01:37:31;;;;;;;5.78;1.50;;;7.30;99.90;;;;;;5046060;28;20040;-69
2024/01/03 01:39:57;;;;;;;8.68;1.10;;;7.50;99.90;;;;;;5031189;28;20041;-67
2024/01/03 01:42:24;;;;;;;7.35;1.38;;;7.30;99.90;;;;;;5030601;28;20474;-67
2024/01/03 01:44:49;;;;;;;9.93;1.38;;;7.40;99.90;;;;;;5045493;28;20037;-67
2024/01/03 01:47:16;;;;;;;7.32;1.55;;;7.50;99.90;;;;;;5040436;28;20091;-69
2024/01/03 01:49:42;;;;;;;4.45;0.93;;;7.00;99.90;;;;;;5038118;28;20131;-67
2024/01/03 01:52:10;;;;;;;5.88;1.00;;;7.00;99.90;;;;;;5026897;28;20067;-66
2024/01/03 01:54:36;;;;;;;6.03;1.10;;;7.30;99.90;;;;;;5036904;28;20045;-66
2024/01/03 01:57:03;;;;;;;10.32;1.40;;;7.40;99.90;;;;;;5013880;28;20054;-67
2024/01/03 01:59:29;;;;;;;6.05;1.27;;;7.30;99.90;;;;;;5038513;28;20083;-66
2024/01/03 02:01:56;;;;;;;4.70;1.25;;;7.30;99.90;;;;;;5035857;28;20060;-67
2024/01/03 02:04:22;;;;;;;7.47;1.10;;;7.40;99.90;;;;;;5030585;28;20033;-66
2024/01/03 02:06:49;;;;;;;8.65;1.40;;;7.40;99.90;;;;;;5050383;28;20076;-67
2024/01/03 02:09:14;;;;;;;5.72;1.10;;;7.20;99.90;;;;;;5044847;28;20071;-66
2024/01/03 02:11:46;;;;;;;4.10;1.10;;;7.40;99.90;;;;;;5048859;28;20165;-67
2024/01/03 02:14:12;;;;;;;5.05;1.30;;;7.20;99.90;;;;;;5041525;28;20045;-67
2024/01/03 02:16:37;;;;;;;10.82;1.30;;;7.20;99.90;;;;;;5028454;28;20032;-68
2024/01/03 02:19:06;;;;;;;5.57;1.00;;;7.30;99.90;;;;;;5029541;28;20079;-68
2024/01/03 02:21:31;;;;;;;15.30;1.38;;;7.20;99.90;;;;;;5020116;28;20049;-70
2024/01/03 02:23:57;;;;;;;6.60;1.30;;;7.30;99.90;;;;;;5031914;28;20388;-71
2024/01/03 02:26:23;;;;;;;5.32;1.20;;;7.30;99.90;;;;;;5031903;28;20470;-69
2024/01/03 02:28:48;;;;;;;4.93;1.20;;;7.30;99.90;;;;;;5029680;28;20064;-67
2024/01/03 02:31:14;;;;;;;3.03;0.90;;;7.30;99.90;;;;;;5034850;28;20755;-69
2024/01/03 02:33:39;;;;;;;4.68;1.30;;;7.30;99.90;;;;;;5029187;28;20038;-67
2024/01/03 02:36:05;;;;;;;5.35;1.65;;;7.40;99.90;;;;;;5028403;28;20037;-65
2024/01/03 02:38:31;;;;;;;6.43;1.00;;;7.40;99.90;;;;;;5043054;28;20036;-67
2024/01/03 02:40:57;;;;;;;4.18;1.00;;;7.40;99.90;;;;;;5025871;28;20112;-67
2024/01/03 02:43:22;;;;;;;3.22;0.95;;;7.40;99.90;;;;;;5040022;28;20082;-69
2024/01/03 02:45:48;;;;;;;3.50;0.95;;;7.50;99.90;;;;;;5027642;28;20132;-69
2024/01/03 02:48:14;;;;;;;5.38;0.95;;;7.40;99.90;;;;;;5038919;28;20028;-68
2024/01/03 02:50:43;;;;;;;4.88;1.00;;;7.40;99.90;;;;;;5036033;28;20042;-69
2024/01/03 02:53:10;;;;;;;2.88;0.80;;;7.40;99.90;;;;;;5032209;28;20096;-71
2024/01/03 02:55:35;;;;;;;4.60;1.52;;;7.50;99.90;;;;;;5035386;28;20571;-74
2024/01/03 02:58:01;;;;;;;2.78;0.98;;;7.50;99.90;;;;;;5049688;28;20045;-70
2024/01/03 03:00:27;;;;;;;4.55;0.95;;;7.50;99.90;;;;;;5036275;28;20037;-67
2024/01/03 03:02:52;;;;;;;3.90;1.38;;;7.50;99.90;;;;;;5037084;28;20111;-68
2024/01/03 03:05:18;;;;;;;3.83;0.80;;;7.50;99.90;;;;;;5029368;28;20144;-66
2024/01/03 03:07:43;;;;;;;1.65;0.65;;;7.60;99.90;;;;;;5030815;28;20064;-69
2024/01/03 03:10:14;;;;;;;3.85;0.70;;;7.60;99.90;;;;;;5016728;28;20040;-68
2024/01/03 03:12:39;;;;;;;;;;;7.70;99.90;;;;;;5045620;28;20041;-67
2024/01/03 03:15:06;;;;;;;9.93;1.55;;;7.70;99.90;;;;;;5031250;28;19927;-69
2024/01/03 03:17:31;;;;;;;4.35;0.80;;;7.70;99.90;;;;;;5035396;28;20508;-69
2024/01/03 03:19:57;;;;;;;5.97;1.38;;;7.70;99.90;;;;;;5032072;28;20048;-68
2024/01/03 03:22:22;;;;;;;2.88;0.80;;;7.70;99.90;;;;;;5047632;28;20358;-65
2024/01/03 03:24:48;;;;;;;3.67;0.70;;;7.70;99.90;;;;;;5040105;28;20053;-68
2024/01/03 03:27:14;;;;;;;4.05;0.82;;;7.70;99.90;;;;;;5032393;28;20037;-67
2024/01/03 03:29:40;;;;;;;2.47;0.77;;;7.70;99.90;;;;;;5033760;28;20045;-67
2024/01/03 03:32:06;;;;;;;2.80;0.50;;;7.70;99.90;;;;;;5033729;28;20041;-68
2024/01/03 03:34:31;;;;;;;3.35;0.77;;;7.70;99.90;;;;;;5042116;28;20513;-67
2024/01/03 03:36:57;;;;;;;6.55;1.00;;;7.60;99.90;;;;;;5032405;28;20053;-67
2024/01/03 03:39:22;;;;;;;5.43;0.75;;;7.70;99.90;;;;;;5043170;28;20045;-67
2024/01/03 03:41:48;;;;;;;1.13;0.60;;;7.80;99.90;;;;;;5044521;28;20056;-67
2024/01/03 03:44:14;;;;;;;2.03;0.70;;;7.70;99.90;;;;;;5037438;28;20030;-65
2024/01/03 03:46:39;;;;;;;1.88;0.43;;;7.70;99.90;;;;;;5032910;28;20091;-68
2024/01/03 03:49:05;;;;;;;1.95;0.60;;;7.60;99.90;;;;;;5039162;28;20053;-68
2024/01/03 03:51:31;;;;;;;2.13;0.50;;;7.60;99.90;;;;;;5033355;28;20050;-68
2024/01/03 03:53:57;;;;;;;2.25;0.70;;;7.60;99.90;;;;;;5035409;28;20033;-66
2024/01/03 03:56:24;;;;;;;2.13;0.65;;;7.70;99.90;;;;;;5042044;28;20084;-66
2024/01/03 03:58:50;;;;;;;2.88;0.40;;;7.60;99.90;;;;;;5039919;28;20045;-67
2024/01/03 04:01:16;;;;;;;3.47;0.90;;;7.60;99.90;;;;;;5035590;28;20045;-67
2024/01/03 04:03:42;;;;;;;2.00;0.50;;;7.70;99.90;;;;;;5033806;28;20365;-67
2024/01/03 04:06:08;;;;;;;1.70;0.40;;;7.40;99.90;;;;;;5039140;28;20124;-68
2024/01/03 04:08:33;;;;;;;2.15;0.60;;;7.80;99.90;;;;;;5038556;28;20481;-67
2024/01/03 04:11:02;;;;;;;1.42;0.30;;;7.70;99.90;;;;;;5037634;28;20459;-66
2024/01/03 04:13:29;;;;;;;3.95;0.52;;;7.90;99.90;;;;;;5047746;28;20497;-66
2024/01/03 04:15:55;;;;;;;0.52;0.30;;;7.70;99.90;;;;;;5039524;28;20064;-67
2024/01/03 04:18:20;;;;;;;1.10;0.32;;;7.50;99.90;;;;;;5050029;28;20505;-67
2024/01/03 04:20:46;;;;;;;0.77;0.40;;;7.70;99.90;;;;;;5039071;28;20040;-67
2024/01/03 04:23:12;;;;;;;0.85;0.43;;;7.50;99.90;;;;;;5028307;28;22661;-67
2024/01/03 04:25:38;;;;;;;1.15;0.28;;;8.00;99.90;;;;;;5040873;28;20622;-66
2024/01/03 04:28:04;;;;;;;2.95;0.50;;;7.60;99.90;;;;;;5050971;28;20375;-67
2024/01/03 04:30:29;;;;;;;1.52;0.50;;;7.60;99.90;;;;;;5033373;28;20065;-68
2024/01/03 04:32:55;;;;;;;3.03;0.50;;;7.50;99.90;;;;;;5037470;28;20040;-65
2024/01/03 04:35:21;;;;;;;8.38;1.02;;;7.90;99.90;;;;;;5032332;28;20033;-65
2024/01/03 04:37:46;;;;;;;8.98;1.42;;;7.70;99.90;;;;;;5039967;28;20075;-66
2024/01/03 04:40:12;;;;;;;11.38;1.85;;;7.70;99.90;;;;;;5052703;28;20393;-68
2024/01/03 04:42:37;;;;;;;9.10;2.00;;;8.20;99.90;;;;;;5018505;28;20030;-67
2024/01/03 04:45:04;;;;;;;11.77;1.73;;;7.90;99.90;;;;;;5042095;28;20037;-67
2024/01/03 04:47:30;;;;;;;24.45;2.92;;;8.20;99.90;;;;;;5037516;28;20496;-66
2024/01/03 04:49:56;;;;;;;16.38;3.00;;;8.30;99.90;;;;;;5020379;28;20045;-67
2024/01/03 04:52:21;;;;;;;16.27;2.53;;;8.40;99.90;;;;;;5042448;28;20044;-67
2024/01/03 04:54:47;;;;;;;22.95;3.15;;;8.30;99.90;;;;;;5052899;28;20127;-67
2024/01/03 04:57:12;;;;;;;23.60;3.40;;;8.30;99.90;;;;;;5037988;28;20107;-66
2024/01/03 04:59:38;;;;;;;17.25;2.83;;;8.00;99.90;;;;;;5023958;28;20560;-66
2024/01/03 05:02:04;;;;;;;24.02;3.08;;;7.90;99.90;;;;;;5019408;28;20031;-66
2024/01/03 05:04:29;;;;;;;17.60;2.58;;;7.90;99.90;;;;;;5034008;28;20154;-69
2024/01/03 05:06:56;;;;;;;18.42;2.80;;;8.30;99.90;;;;;;5031686;28;20120;-66
2024/01/03 05:09:22;;;;;;;20.33;2.78;;;8.00;99.90;;;;;;5032804;28;20059;-67
2024/01/03 05:11:48;;;;;;;24.63;3.70;;;8.30;99.90;;;;;;5029415;28;20421;-67
2024/01/03 05:14:14;;;;;;;16.55;3.20;;;8.20;99.90;;;;;;5031583;28;20127;-66
2024/01/03 05:16:41;;;;;;;24.08;3.30;;;8.20;99.90;;;;;;5040010;28;20373;-68
2024/01/03 05:19:06;;;;;;;15.55;2.70;;;8.30;99.90;;;;;;5030408;28;20072;-66
2024/01/03 05:21:32;;;;;;;24.05;4.55;;;8.30;99.90;;;;;;5032396;28;20057;-66
2024/01/03 05:23:58;;;;;;;19.40;3.30;;;8.20;99.90;;;;;;5036963;28;20036;-66
2024/01/03 05:26:24;;;;;;;25.75;3.90;;;8.20;99.90;;;;;;5014539;28;20064;-65
2024/01/03 05:28:49;;;;;;;22.55;3.50;;;8.20;99.90;;;;;;5041584;28;20044;-67
2024/01/03 05:31:15;;;;;;;21.23;2.90;;;8.20;99.90;;;;;;5038648;28;20056;-67
2024/01/03 05:33:41;;;;;;;14.68;2.38;;;8.30;99.90;;;;;;5028208;28;20083;-67
2024/01/03 05:36:06;;;;;;;19.48;3.25;;;8.30;99.90;;;;;;5044871;28;20133;-64
2024/01/03 05:38:35;;;;;;;16.02;2.75;;;8.20;99.90;;;;;;5037465;28;20110;-65
2024/01/03 05:41:01;;;;;;;17.20;2.95;;;8.30;99.90;;;;;;5045940;28;20037;-66
2024/01/03 05:43:28;;;;;;;17.83;2.65;;;8.20;99.90;;;;;;5029248;28;20381;-67
2024/01/03 05:45:53;;;;;;;14.43;2.75;;;8.20;99.90;;;;;;5031970;28;20493;-66
2024/01/03 05:48:19;;;;;;;11.63;2.25;;;8.20;99.90;;;;;;5031415;28;20054;-67
2024/01/03 05:50:45;;;;;;;13.18;2.80;;;8.20;99.90;;;;;;5036810;28;20067;-68
2024/01/03 05:53:10;;;;;;;18.27;2.35;;;8.10;99.90;;;;;;5035697;28;21044;-68
2024/01/03 05:55:36;;;;;;;6.43;1.52;;;8.20;99.90;;;;;;5046463;28;20045;-64
2024/01/03 05:58:01;;;;;;;13.65;2.28;;;8.20;99.90;;;;;;5035393;28;20047;-67
2024/01/03 06:00:27;;;;;;;10.88;2.17;;;8.20;99.90;;;;;;5038057;28;20397;-67
2024/01/03 06:02:53;;;;;;;12.73;2.00;;;8.20;99.90;;;;;;5030325;28;20060;-65
2024/01/03 06:05:20;;;;;;;17.23;2.33;;;8.20;99.90;;;;;;5046196;28;20039;-67
2024/01/03 06:07:46;;;;;;;8.27;1.98;;;8.20;99.90;;;;;;5049363;28;20394;-66
2024/01/03 06:10:12;;;;;;;13.30;2.25;;;8.20;99.90;;;;;;5034945;28;20041;-68
2024/01/03 06:12:39;;;;;;;13.20;2.42;;;8.30;99.90;;;;;;5028888;28;20044;-66
2024/01/03 06:15:06;;;;;;;19.67;1.92;;;8.30;99.90;;;;;;5033817;28;20146;-68
2024/01/03 06:17:31;;;;;;;18.23;2.90;;;8.40;99.90;;;;;;5030642;28;20116;-66
2024/01/03 06:19:57;;;;;;;20.42;4.07;;;8.30;99.90;;;;;;5031759;28;20124;-69
2024/01/03 06:22:22;;;;;;;13.35;2.67;;;8.40;99.90;;;;;;5037264;28;20048;-66
2024/01/03 06:24:48;;;;;;;15.10;2.65;;;8.40;99.90;;;;;;5013316;28;20026;-68
2024/01/03 06:27:14;;;;;;;17.80;2.20;;;8.40;99.90;;;;;;5042209;28;20112;-66
2024/01/03 06:29:39;;;;;;;13.60;2.30;;;8.40;99.90;;;;;;5014883;28;20037;-68
2024/01/03 06:32:05;;;;;;;14.00;2.05;;;8.40;99.90;;;;;;5027445;28;20111;-67
2024/01/03 06:34:31;;;;;;;12.45;3.25;;;8.30;99.90;;;;;;5031047;28;20049;-65
2024/01/03 06:37:00;;;;;;;11.50;1.83;;;8.30;99.90;;;;;;5018258;28;20068;-67
2024/01/03 06:39:26;;;;;;;13.80;2.17;;;8.20;99.90;;;;;;5040512;28;20052;-66
2024/01/03 06:41:51;;;;;;;15.50;2.45;;;8.30;99.90;;;;;;5031946;28;20033;-68
2024/01/03 06:44:17;;;;;;;7.60;1.65;;;8.30;99.90;;;;;;5031551;28;20518;-67
2024/01/03 06:46:42;;;;;;;10.82;1.83;;;8.30;99.90;;;;;;5018564;28;20029;-66
2024/01/03 06:49:08;;;;;;;9.98;1.73;;;8.30;99.90;;;;;;5039176;28;20450;-68
2024/01/03 06:51:34;;;;;;;10.35;1.38;;;8.30;99.90;;;;;;5044830;28;20621;-66
2024/01/03 06:53:59;;;;;;;5.22;1.05;;;8.40;99.90;;;;;;5030565;28;20061;-69
2024/01/03 06:56:25;;;;;;;7.22;1.45;;;8.30;99.90;;;;;;5031161;28;20095;-69
2024/01/03 06:58:51;;;;;;;7.82;1.55;;;8.20;99.90;;;;;;5035067;28;20055;-67
2024/01/03 07:01:16;;;;;;;10.13;1.17;;;8.40;99.90;;;;;;5030071;28;20084;-68
2024/01/03 07:03:42;;;;;;;9.10;1.58;;;8.40;99.90;;;;;;5036484;28;20052;-68
2024/01/03 07:06:09;;;;;;;8.65;1.48;;;8.40;99.90;;;;;;5042130;28;20041;-69
2024/01/03 07:08:34;;;;;;;8.77;1.60;;;8.30;99.90;;;;;;5046527;28;20060;-68
2024/01/03 07:11:00;;;;;;;10.85;1.92;;;8.30;99.90;;;;;;5030186;28;20041;-68
2024/01/03 07:13:25;;;;;;;8.82;1.58;;;8.20;99.90;;;;;;5036637;28;20045;-68
2024/01/03 07:15:51;;;;;;;8.27;2.33;;;8.30;99.90;;;;;;5034460;28;20037;-67
2024/01/03 07:18:17;;;;;;;8.70;1.67;;;8.30;99.90;;;;;;5038938;28;20029;-68
2024/01/03 07:20:42;;;;;;;10.55;2.60;;;8.20;99.90;;;;;;5015305;28;20093;-68
2024/01/03 07:23:08;;;;;;;15.20;2.42;;;8.10;99.90;;;;;;5043616;28;20497;-67
2024/01/03 07:25:33;;;;;;;11.93;2.03;;;8.20;99.90;;;;;;5037651;28;20038;-68
2024/01/03 07:27:59;;;;;;;13.75;1.80;;;8.20;99.90;;;;;;5035934;28;20508;-67
2024/01/03 07:30:26;;;;;;;14.63;1.80;;;8.10;99.90;;;;;;5030000;28;20524;-68
2024/01/03 07:32:56;;;;;;;9.38;1.90;;;8.10;99.90;;;;;;5034187;28;20097;-67
2024/01/03 07:35:23;;;;;;;14.35;2.30;;;8.10;99.90;;;;;;5033013;28;20111;-68
2024/01/03 07:37:48;;;;;;;18.42;2.33;;;8.10;99.90;;;;;;5027566;28;20041;-72
2024/01/03 07:40:14;;;;;;;12.77;2.20;;;8.10;99.90;;;;;;5030272;28;20179;-67
2024/01/03 07:42:39;;;;;;;12.98;2.50;;;8.00;99.90;;;;;;5011388;28;20355;-69
2024/01/03 07:45:06;;;;;;;14.65;2.33;;;8.00;99.90;;;;;;5030260;28;20430;-69
2024/01/03 07:47:31;;;;;;;15.63;2.28;;;8.00;99.90;;;;;;5029159;28;20410;-65
2024/01/03 07:49:57;;;;;;;17.60;2.33;;;8.00;99.90;;;;;;5031659;28;20037;-70
2024/01/03 07:52:23;;;;;;;14.75;2.40;;;8.00;99.90;;;;;;5013701;28;20041;-67
2024/01/03 07:54:48;;;;;;;12.63;2.55;;;8.00;99.90;;;;;;5013194;28;20041;-70
2024/01/03 07:57:14;;;;;;;13.55;2.42;;;8.00;99.90;;;;;;5028723;28;20366;-66
2024/01/03 07:59:43;;;;;;;7.18;1.98;;;7.90;99.90;;;;;;5032190;28;20033;-69
2024/01/03 08:02:08;;;;;;;7.50;1.50;;;7.90;99.90;;;;;;5032504;28;20040;-67
2024/01/03 08:04:34;;;;;;;5.10;1.13;;;7.80;99.90;;;;;;5019209;28;20084;-70
2024/01/03 08:06:59;;;;;;;6.45;0.98;;;7.80;99.90;;;;;;5029803;28;20452;-69
2024/01/03 08:09:25;;;;;;;4.88;1.75;;;7.70;99.90;;;;;;5034322;28;20048;-69
2024/01/03 08:11:51;;;;;;;3.53;0.90;;;7.70;99.90;;;;;;5043606;28;20087;-66
2024/01/03 08:14:16;;;;;;;5.65;1.30;;;7.70;99.90;;;;;;5043199;28;20037;-68
2024/01/03 08:16:42;;;;;;;4.72;1.50;;;7.60;99.90;;;;;;5040073;28;20414;-67
2024/01/03 08:19:07;;;;;;;6.60;1.30;;;7.70;99.90;;;;;;5034180;28;20790;-69
2024/01/03 08:21:33;;;;;;;10.23;1.20;;;7.70;99.90;;;;;;5040979;28;20109;-68
2024/01/03 08:23:59;;;;;;;8.10;1.27;;;7.70;99.90;;;;;;5052484;28;20067;-68
2024/01/03 08:26:24;;;;;;;12.60;1.63;;;7.70;99.90;;;;;;5032206;28;20666;-67
2024/01/03 08:28:50;;;;;;;10.43;1.73;;;7.80;99.90;;;;;;5032650;28;20060;-67
2024/01/03 08:31:17;;;;;;;9.38;1.42;;;7.70;99.90;;;;;;5032283;28;20065;-70
2024/01/03 08:33:46;;;;;;;11.00;2.05;;;7.70;99.90;;;;;;5051750;28;20106;-68
2024/01/03 08:36:13;;;;;;;8.05;1.45;;;7.70;99.90;;;;;;5034392;28;20038;-70
2024/01/03 08:38:40;;;;;;;9.25;1.27;;;7.70;99.90;;;;;;5024731;28;20116;-70
2024/01/03 08:41:19;;;;;;;4.93;1.67;;;7.70;99.90;;;;;;5048712;28;20086;-69
2024/01/03 08:43:46;;;;;;;9.27;1.27;;;7.70;99.90;;;;;;5019064;28;20037;-69
2024/01/03 08:46:12;;;;;;;9.25;1.33;;;7.70;99.90;;;;;;5018975;28;20068;-69
2024/01/03 08:48:41;;;;;;;12.30;1.85;;;7.70;99.90;;;;;;5035779;28;20065;-68
2024/01/03 08:51:16;;;;;;;12.70;1.67;;;7.80;99.90;;;;;;5031393;28;20041;-68
2024/01/03 08:53:42;;;;;;;7.65;1.48;;;7.80;99.90;;;;;;5039926;28;20087;-71
2024/01/03 08:56:18;;;;;;;12.45;1.83;;;7.80;99.90;;;;;;5022524;28;20033;-69
2024/01/03 08:58:45;;;;;;;10.55;1.88;;;8.00;99.90;;;;;;5035340;28;20098;-68
2024/01/03 09:01:21;;;;;;;11.45;1.80;;;8.10;99.90;;;;;;5030703;28;20037;-69
2024/01/03 09:03:47;;;;;;;8.02;2.38;;;8.20;99.90;;;;;;5030776;28;20469;-68
2024/01/03 09:06:17;;;;;;;10.63;1.80;;;8.20;99.90;;;;;;5048243;28;20067;-68
2024/01/03 09:08:42;;;;;;;8.38;1.67;;;8.30;99.90;;;;;;5015833;28;20124;-69
2024/01/03 09:11:12;;;;;;;11.32;1.77;;;8.40;99.90;;;;;;5049859;28;20516;-67
2024/01/03 09:13:39;;;;;;;11.02;1.38;;;8.50;99.90;;;;;;5038201;28;20099;-68
2024/01/03 09:16:06;;;;;;;8.60;1.67;;;8.50;99.90;;;;;;5039299;28;20048;-68
2024/01/03 09:18:32;;;;;;;7.38;1.42;;;8.50;99.90;;;;;;5030024;28;20111;-70
2024/01/03 09:20:58;;;;;;;10.07;1.70;;;8.60;99.90;;;;;;5044535;28;20037;-68
2024/01/03 09:23:24;;;;;;;9.90;1.50;;;8.60;99.90;;;;;;5049330;28;20033;-67
2024/01/03 09:25:51;;;;;;;7.00;1.67;;;8.60;99.90;;;;;;5040339;28;20074;-68
2024/01/03 09:28:17;;;;;;;10.30;1.65;;;8.70;99.90;;;;;;5035696;28;20485;-70
2024/01/03 09:30:43;;;;;;;8.98;1.60;;;8.80;99.90;;;;;;5017516;28;20183;-69
2024/01/03 09:33:10;;;;;;;9.18;1.80;;;8.80;99.90;;;;;;5035795;28;20068;-70
2024/01/03 09:35:36;;;;;;;13.75;1.52;;;8.90;99.90;;;;;;5026612;28;20462;-69
2024/01/03 09:38:01;;;;;;;13.68;1.60;;;9.00;99.90;;;;;;5027792;28;20108;-69
2024/01/03 09:40:27;;;;;;;9.88;1.98;;;9.10;99.90;;;;;;5029641;28;20041;-69
2024/01/03 09:42:54;;;;;;;15.70;2.40;;;9.10;99.90;;;;;;5029657;28;20145;-69
2024/01/03 09:45:20;;;;;;;11.73;1.73;;;9.20;99.90;;;;;;5014442;28;20044;-67
2024/01/03 09:47:46;;;;;;;14.05;1.65;;;9.20;99.90;;;;;;5012611;28;20409;-69
2024/01/03 09:50:12;;;;;;;11.85;1.63;;;9.20;99.90;;;;;;5023613;28;20060;-68
2024/01/03 09:52:40;;;;;;;7.50;1.80;;;9.10;99.90;;;;;;5030153;28;20033;-70
2024/01/03 09:55:07;;;;;;;11.02;1.88;;;9.20;99.90;;;;;;5013640;28;20449;-69
2024/01/03 09:57:33;;;;;;;10.65;1.50;;;9.20;99.90;;;;;;5048703;28;20052;-70
2024/01/03 09:59:59;;;;;;;9.18;1.88;;;9.10;99.90;;;;;;5024774;28;20049;-68
2024/01/03 10:02:28;;;;;;;11.45;1.58;;;9.10;99.90;;;;;;5040514;28;20036;-67
2024/01/03 10:04:54;;;;;;;4.70;1.40;;;9.20;99.90;;;;;;5048446;28;20044;-68
2024/01/03 10:07:33;;;;;;;4.20;1.30;;;9.20;99.90;;;;;;5030326;28;20037;-67
2024/01/03 10:09:59;;;;;;;11.25;1.58;;;9.20;99.90;;;;;;5013005;28;20512;-68
2024/01/03 10:12:28;;;;;;;4.53;1.67;;;9.20;99.90;;;;;;5034962;28;20045;-65
2024/01/03 10:14:54;;;;;;;7.38;1.30;;;9.20;99.90;;;;;;5043232;28;20047;-68
2024/01/03 10:17:21;;;;;;;10.85;1.63;;;9.20;99.90;;;;;;5031319;28;20152;-69
2024/01/03 10:19:47;;;;;;;8.07;1.73;;;9.20;99.90;;;;;;5019108;28;20045;-69
2024/01/03 10:22:18;;;;;;;9.80;1.55;;;9.30;99.90;;;;;;5046356;28;20033;-70
2024/01/03 10:24:46;;;;;;;7.07;1.25;;;9.30;99.90;;;;;;5032917;28;20127;-70
2024/01/03 10:27:11;;;;;;;4.43;1.20;;;9.30;99.90;;;;;;5022968;28;20512;-69
2024/01/03 10:29:37;;;;;;;8.40;1.70;;;9.40;99.90;;;;;;5031489;28;20033;-71
2024/01/03 10:32:05;;;;;;;5.88;1.48;;;9.40;99.90;;;;;;5038363;28;20048;-69
2024/01/03 10:34:31;;;;;;;10.38;1.40;;;9.50;99.90;;;;;;5031000;28;20051;-68
2024/01/03 10:36:58;;;;;;;7.10;1.27;;;9.60;99.90;;;;;;5013483;28;20083;-68
2024/01/03 10:39:25;;;;;;;5.07;1.05;;;9.50;99.90;;;;;;5029815;28;20091;-70
2024/01/03 10:41:53;;;;;;;6.97;1.23;;;9.60;99.90;;;;;;5041969;28;20404;-68
2024/01/03 10:44:19;;;;;;;6.13;1.30;;;9.60;99.90;;;;;;5013691;28;20117;-67
2024/01/03 10:46:46;;;;;;;10.23;1.52;;;9.60;99.90;;;;;;5033011;28;20405;-69
2024/01/03 10:49:11;;;;;;;5.65;1.10;;;9.60;99.90;;;;;;5043849;28;20041;-70
2024/01/03 10:51:42;;;;;;;4.30;1.02;;;9.70;99.90;;;;;;5036576;28;20524;-69
2024/01/03 10:54:09;;;;;;;;;;;9.70;99.90;;;;;;5015245;28;20037;-70
2024/01/03 10:56:36;;;;;;;10.77;1.45;;;9.70;99.90;;;;;;5033591;28;20031;-69
2024/01/03 10:59:03;;;;;;;5.03;1.08;;;9.70;99.90;;;;;;5037592;28;20801;-69
2024/01/03 11:01:34;;;;;;;6.90;1.50;;;9.70;99.90;;;;;;5042195;28;20045;-69
2024/01/03 11:04:18;;;;;;;7.93;1.35;;;9.70;99.90;;;;;;5039227;28;20112;-69
2024/01/03 11:06:58;;;;;;;7.18;1.73;;;9.80;99.90;;;;;;5019697;28;20041;-70
2024/01/03 11:09:25;;;;;;;8.68;1.60;;;9.70;99.90;;;;;;5042665;28;20167;-69
2024/01/03 11:12:08;;;;;;;7.63;1.70;;;9.70;99.90;;;;;;5041518;28;20033;-70
2024/01/03 11:14:40;;;;;;;10.57;1.63;;;9.70;99.90;;;;;;5016200;28;20107;-68
2024/01/03 11:17:09;;;;;;;7.40;1.40;;;9.60;99.90;;;;;;5039691;28;20037;-69
2024/01/03 11:19:35;;;;;;;15.40;2.30;;;9.60;99.90;;;;;;5037609;28;20083;-70
2024/01/03 11:22:05;;;;;;;12.10;2.05;;;9.60;99.90;;;;;;5040687;28;20109;-68
2024/01/03 11:24:30;;;;;;;9.60;1.80;;;9.50;99.90;;;;;;5044686;28;20047;-70
2024/01/03 11:26:56;;;;;;;9.30;2.30;;;9.50;99.90;;;;;;5030777;28;20049;-71
2024/01/03 11:29:55;;;;;;;11.43;2.28;;;9.50;99.90;;;;;;5032140;28;20052;-68
2024/01/03 11:32:36;;;;;;;12.38;1.83;;;9.50;99.90;;;;;;5039555;28;20128;-67
2024/01/03 11:35:04;;;;;;;11.65;1.92;;;9.60;99.90;;;;;;5030453;28;20397;-70
2024/01/03 11:37:29;;;;;;;14.55;2.00;;;9.60;99.90;;;;;;5039767;28;20048;-69
2024/01/03 11:39:58;;;;;;;10.95;1.92;;;9.70;99.90;;;;;;5027267;28;20037;-70
2024/01/03 11:42:41;;;;;;;10.13;2.33;;;9.80;99.90;;;;;;5030623;28;20052;-70
2024/01/03 11:45:20;;;;;;;11.57;1.90;;;9.90;99.90;;;;;;5034463;28;20044;-68
2024/01/03 11:47:47;;;;;;;15.52;2.45;;;9.90;99.90;;;;;;5046669;28;20048;-71
2024/01/03 11:50:15;;;;;;;11.00;2.38;;;10.00;99.90;;;;;;5040723;28;20056;-70
2024/01/03 11:52:42;;;;;;;12.55;2.53;;;10.00;99.90;;;;;;5032588;28;20049;-68
2024/01/03 11:55:12;;;;;;;13.73;2.80;;;10.00;99.90;;;;;;5040514;28;20139;-70
2024/01/03 11:57:42;;;;;;;16.27;2.72;;;9.90;99.90;;;;;;5026998;28;20084;-69
2024/01/03 12:00:22;;;;;;;12.57;2.03;;;9.90;99.90;;;;;;5016782;28;20458;-71
2024/01/03 12:02:57;;;;;;;15.35;2.42;;;9.90;99.90;;;;;;5032048;28;20326;-69
2024/01/03 12:05:25;;;;;;;20.05;2.80;;;9.90;99.90;;;;;;5040326;28;20049;-68
2024/01/03 12:07:52;;;;;;;11.18;2.33;;;9.80;99.90;;;;;;5050615;28;20037;-70
2024/01/03 12:10:18;;;;;;;14.77;2.42;;;9.80;99.90;;;;;;5052372;28;20052;-68
2024/01/03 12:12:48;;;;;;;13.15;2.15;;;9.70;99.90;;;;;;5045383;28;20469;-70
2024/01/03 12:15:26;;;;;;;13.87;2.90;;;9.70;99.90;;;;;;5027991;28;20559;-71
2024/01/03 12:17:52;;;;;;;13.70;2.63;;;9.60;99.90;;;;;;5046645;28;20037;-69
2024/01/03 12:20:20;;;;;;;15.85;2.28;;;9.60;99.90;;;;;;5048873;28;20041;-65
2024/01/03 12:22:46;;;;;;;14.50;2.05;;;9.60;99.90;;;;;;5017310;28;20037;-69
2024/01/03 12:25:26;;;;;;;14.00;2.60;;;9.60;99.90;;;;;;5033329;28;20116;-70
2024/01/03 12:27:58;;;;;;;16.52;2.42;;;9.60;99.90;;;;;;5031766;28;20092;-71
2024/01/03 12:30:24;;;;;;;13.68;2.90;;;9.50;99.90;;;;;;5032715;28;20087;-70
2024/01/03 12:32:50;;;;;;;16.30;2.80;;;9.40;99.90;;;;;;5040659;28;20049;-70
2024/01/03 12:35:16;;;;;;;11.32;2.67;;;9.50;99.90;;;;;;5049999;28;20232;-71
2024/01/03 12:37:42;;;;;;;15.48;2.30;;;9.40;99.90;;;;;;5025927;28;20143;-72
2024/01/03 12:40:11;;;;;;;10.27;2.40;;;9.40;99.90;;;;;;5049253;28;20048;-69
2024/01/03 12:42:37;;;;;;;12.10;2.22;;;9.40;99.90;;;;;;5016061;28;20045;-71
2024/01/03 12:45:03;;;;;;;13.55;2.35;;;9.40;99.90;;;;;;5026168;28;20048;-69
2024/01/03 12:47:29;;;;;;;13.75;3.22;;;9.40;99.90;;;;;;5041704;28;20051;-69
2024/01/03 12:49:55;;;;;;;15.05;2.40;;;9.40;99.90;;;;;;5033719;28;20185;-69
2024/01/03 12:52:29;;;;;;;9.55;2.35;;;9.40;99.90;;;;;;5024661;28;20505;-70